Big Bear Station Historical Data
Daily Summary for August 6, 2017 Units:  English    Metric   Both
« Previous Day
Next Day »
Daily Weekly Monthly Yearly Custom
  High: Low: Average:
Temperature: 79.7 °F 51.4 °F 63 °F
Dew Point: 57.5 °F 47.5 °F 51.7 °F
Humidity: 90 % 39 % 69 %
Wind Speed: 6.3 mph 0.0 mph 1.7 mph
Wind Gust: -999.0 mph - -
Wind:- - WSW
Pressure: 30.27 in 30.22 in -
Precipitation: 0.00 in    
Historical Graphs
 
 
Tabular Data for August 6, 2017
Time Temperature Dew Point Pressure Wind Wind Speed Wind Gust Humidity Rainfall Rate (Hourly)
00:08 56.3 °F 51.2 °F 30.25 in Calm   -999.0 mph 83 % 0 in
00:24 56.3 °F 50.9 °F 30.25 in Calm   -999.0 mph 82 % 0 in
00:39 55.9 °F 50.5 °F 30.25 in South 1.7 mph -999.0 mph 82 % 0 in
00:54 55.8 °F 50.1 °F 30.25 in Calm   -999.0 mph 81 % 0 in
01:09 55.4 °F 50.0 °F 30.24 in South 1.7 mph -999.0 mph 82 % 0 in
01:24 55.0 °F 49.3 °F 30.24 in South 1.7 mph -999.0 mph 81 % 0 in
01:40 54.7 °F 48.7 °F 30.24 in Calm   -999.0 mph 80 % 0 in
01:55 54.7 °F 48.7 °F 30.23 in South 2.2 mph -999.0 mph 80 % 0 in
02:25 54.0 °F 48.3 °F 30.23 in South 1.7 mph -999.0 mph 81 % 0 in
02:40 53.6 °F 47.9 °F 30.23 in Calm   -999.0 mph 81 % 0 in
02:56 53.8 °F 48.4 °F 30.23 in Calm   -999.0 mph 82 % 0 in
03:11 53.4 °F 48.7 °F 30.23 in South 1.1 mph -999.0 mph 84 % 0 in
03:26 53.2 °F 48.8 °F 30.22 in Calm   -999.0 mph 85 % 0 in
03:41 53.2 °F 48.8 °F 30.22 in South 2.2 mph -999.0 mph 85 % 0 in
03:57 52.9 °F 48.8 °F 30.22 in Calm   -999.0 mph 86 % 0 in
04:12 52.9 °F 48.8 °F 30.22 in Calm   -999.0 mph 86 % 0 in
04:27 53.1 °F 49.3 °F 30.22 in SSW 1.7 mph -999.0 mph 87 % 0 in
04:42 52.9 °F 48.8 °F 30.22 in Calm   -999.0 mph 86 % 0 in
04:57 52.5 °F 48.4 °F 30.22 in Calm   -999.0 mph 86 % 0 in
05:13 52.2 °F 48.1 °F 30.22 in Calm   -999.0 mph 86 % 0 in
05:28 52.2 °F 47.8 °F 30.22 in Calm   -999.0 mph 85 % 0 in
05:43 51.8 °F 48.1 °F 30.22 in Calm   -999.0 mph 87 % 0 in
05:58 51.8 °F 48.7 °F 30.22 in Calm   -999.0 mph 89 % 0 in
06:13 51.4 °F 48.0 °F 30.23 in Calm   -999.0 mph 88 % 0 in
06:29 51.4 °F 48.0 °F 30.23 in Calm   -999.0 mph 88 % 0 in
06:44 51.6 °F 47.5 °F 30.23 in Calm   -999.0 mph 86 % 0 in
06:59 51.6 °F 47.5 °F 30.24 in Calm   -999.0 mph 86 % 0 in
07:14 52.3 °F 48.5 °F 30.24 in Calm   -999.0 mph 87 % 0 in
07:29 52.5 °F 49.0 °F 30.24 in Calm   -999.0 mph 88 % 0 in
07:45 53.1 °F 50.2 °F 30.24 in Calm   -999.0 mph 90 % 0 in
08:00 55.9 °F 51.8 °F 30.24 in Calm   -999.0 mph 86 % 0 in
08:15 55.8 °F 52.0 °F 30.24 in Calm   -999.0 mph 87 % 0 in
08:30 57.2 °F 53.1 °F 30.24 in Calm   -999.0 mph 86 % 0 in
08:45 59.4 °F 54.2 °F 30.24 in Calm   -999.0 mph 83 % 0 in
09:01 61.3 °F 54.4 °F 30.24 in Calm   -999.0 mph 78 % 0 in
09:16 63.1 °F 54.7 °F 30.24 in Calm   -999.0 mph 74 % 0 in
09:31 65.1 °F 49.5 °F 30.24 in Calm   -999.0 mph 57 % 0 in
09:46 68.5 °F 49.7 °F 30.24 in Calm   -999.0 mph 51 % 0 in
10:02 70.7 °F 51.2 °F 30.24 in NW 3.2 mph -999.0 mph 50 % 0 in
10:17 71.4 °F 51.2 °F 30.24 in NW 3.7 mph -999.0 mph 49 % 0 in
10:32 71.2 °F 51.1 °F 30.24 in NW 2.7 mph -999.0 mph 49 % 0 in
10:49 71.6 °F 52.0 °F 30.24 in NW 3.7 mph -999.0 mph 50 % 0 in
11:08 71.1 °F 52.6 °F 30.24 in WNW 3.7 mph -999.0 mph 52 % 0 in
11:24 72.9 °F 54.8 °F 30.24 in WNW 3.7 mph -999.0 mph 53 % 0 in
11:39 71.2 °F 54.2 °F 30.24 in NW 3.7 mph -999.0 mph 55 % 0 in
11:54 70.9 °F 53.9 °F 30.24 in West 3.2 mph -999.0 mph 55 % 0 in
12:24 73.9 °F 54.1 °F 30.25 in NNW 2.7 mph -999.0 mph 50 % 0 in
12:40 73.8 °F 52.9 °F 30.25 in NNW 3.2 mph -999.0 mph 48 % 0 in
12:55 77.0 °F 52.8 °F 30.25 in NNW 4.2 mph -999.0 mph 43 % 0 in
13:10 75.9 °F 51.8 °F 30.25 in SW 1.1 mph -999.0 mph 43 % 0 in
13:41 79.7 °F 52.6 °F 30.25 in NNW 2.7 mph -999.0 mph 39 % 0 in
13:56 77.0 °F 51.5 °F 30.25 in West 2.2 mph -999.0 mph 41 % 0 in
14:11 76.6 °F 54.3 °F 30.25 in NW 2.7 mph -999.0 mph 46 % 0 in
14:26 74.7 °F 54.3 °F 30.25 in NW 2.7 mph -999.0 mph 49 % 0 in
14:41 74.8 °F 54.9 °F 30.24 in NNW 3.7 mph -999.0 mph 50 % 0 in
15:28 72.7 °F 54.1 °F 30.24 in NNE 3.2 mph -999.0 mph 52 % 0 in
15:43 74.8 °F 54.4 °F 30.24 in South 2.7 mph -999.0 mph 49 % 0 in
15:58 72.9 °F 54.8 °F 30.24 in NW 3.7 mph -999.0 mph 53 % 0 in
16:14 73.2 °F 54.0 °F 30.23 in NW 2.7 mph -999.0 mph 51 % 0 in
16:29 76.1 °F 55.6 °F 30.23 in NW 5.3 mph -999.0 mph 49 % 0 in
16:44 76.5 °F 56.5 °F 30.23 in West 4.2 mph -999.0 mph 50 % 0 in
16:59 78.1 °F 56.8 °F 30.23 in NNW 3.7 mph -999.0 mph 48 % 0 in
17:14 77.5 °F 56.3 °F 30.23 in NW 4.7 mph -999.0 mph 48 % 0 in
17:30 76.3 °F 55.7 °F 30.22 in West 3.2 mph -999.0 mph 49 % 0 in
17:45 76.3 °F 56.3 °F 30.22 in NW 3.7 mph -999.0 mph 50 % 0 in
18:00 77.0 °F 57.5 °F 30.22 in WSW 4.7 mph -999.0 mph 51 % 0 in
18:15 75.0 °F 56.7 °F 30.22 in NW 4.2 mph -999.0 mph 53 % 0 in
18:31 74.3 °F 56.6 °F 30.22 in West 3.7 mph -999.0 mph 54 % 0 in
18:46 70.9 °F 55.9 °F 30.22 in NW 6.3 mph -999.0 mph 59 % 0 in
19:01 67.5 °F 55.3 °F 30.22 in SSE 2.7 mph -999.0 mph 65 % 0 in
19:17 65.3 °F 54.9 °F 30.22 in NW 5.3 mph -999.0 mph 69 % 0 in
19:32 64.4 °F 55.6 °F 30.23 in WNW 2.7 mph -999.0 mph 73 % 0 in
19:47 63.1 °F 55.0 °F 30.23 in NW 2.2 mph -999.0 mph 75 % 0 in
20:02 62.6 °F 54.9 °F 30.23 in Calm   -999.0 mph 76 % 0 in
20:18 62.2 °F 53.1 °F 30.23 in South 1.7 mph -999.0 mph 72 % 0 in
20:33 62.1 °F 52.2 °F 30.24 in South 1.7 mph -999.0 mph 70 % 0 in
20:48 61.5 °F 51.6 °F 30.24 in South 2.2 mph -999.0 mph 70 % 0 in
21:04 61.2 °F 49.8 °F 30.24 in South 2.2 mph -999.0 mph 66 % 0 in
21:19 60.6 °F 49.2 °F 30.24 in Calm   -999.0 mph 66 % 0 in
21:34 60.1 °F 49.5 °F 30.25 in Calm   -999.0 mph 68 % 0 in
21:49 59.5 °F 49.7 °F 30.25 in Calm   -999.0 mph 70 % 0 in
22:05 59.2 °F 49.8 °F 30.25 in Calm   -999.0 mph 71 % 0 in
22:20 59.0 °F 50.4 °F 30.26 in Calm   -999.0 mph 73 % 0 in
22:35 58.3 °F 50.1 °F 30.26 in Calm   -999.0 mph 74 % 0 in
22:50 57.9 °F 50.4 °F 30.26 in Calm   -999.0 mph 76 % 0 in
23:05 57.6 °F 50.4 °F 30.26 in Calm   -999.0 mph 77 % 0 in
23:21 57.0 °F 50.2 °F 30.27 in Calm   -999.0 mph 78 % 0 in
23:36 56.8 °F 50.0 °F 30.27 in South 1.7 mph -999.0 mph 78 % 0 in
23:51 56.5 °F 50.4 °F 30.26 in South 1.7 mph -999.0 mph 80 % 0 in
Big Bear CA Weather
Compliments of Weather Underground - 1.5 mb